Aérodrome :







RETROUVEZ-NOUS SUR...

 
LOGIN :

S'inscrire | Disclaimer

   EN    FR    IT 

 









Légende :    VFR   VFR Marginal   IFR   IFR Intensif   IFR Très Intensif
Visi : 
Plafond : 
>= 8 km
>= 3000ft
5 à 8 km
1000 à 3000 ft
1500m à 5 km
500 à 1000 ft
800 à 1500m
200 à 500 ft
< 800m
< 200 ft
Symboles :   Orages  Brouillard  Fortes neiges  Fortes précipitations  Vent > 20 kt






- Altitude de l'aérodrome : 534 ft
- Code IATA : PQI


KPQI - Northern Maine Regional Arpt At Presque Isle

DERNIER METAR :
  • 050356Z AUTO 00000KT 10SM CLR 12/11 A2992 RMK AO2 SLP157 T01170106

METARs EXPIRÉS :
  • 050256Z AUTO 00000KT 10SM CLR 13/10 A2992 RMK AO2 SLP156 T01330100 51009
  • 050156Z AUTO 00000KT 10SM CLR 16/11 A2992 RMK AO2 SLP154 T01560111

TAF KPQI
Valide du 05 à 00h jusqu'au 06 à 00h UTC


042336Z 0500/0524 34008KT P6SM SCT060
FM050800 VRB03KT P6SM BKN060
FM051500 VRB03KT P6SM VCSH OVC050
FM052000 02006KT 5SM -SHRA OVC030
FIR KZBW / Amérique du Nord



MET'MAP, la Météo Aéronautique d'un coup d'oeil ! - Copyright ORBIFLY Décembre 2007 - Disclaimer

ORBIFLY MET'MAP TEAM :

Programmation & Développement : Alexandra Zaïnal
Sur une idée originale de : Baudouin d'Aumeries
Assistance à la programmation : Marc-Olivier Méhu
Soutien technique & logistique : Manuel Goepfert

Contact : metmap@orbifly.com




SOURCES & CREDITS :

   NOAA